sensor_id;sensor_type;location;lat;lon;timestamp;temperature;humidity
3478;DHT22;37937;61.490;23.506;2022-12-29T00:01:50;-3.00;99.90
3478;DHT22;37937;61.490;23.506;2022-12-29T00:04:17;-3.00;99.90
3478;DHT22;37937;61.490;23.506;2022-12-29T00:06:44;-3.00;99.90
3478;DHT22;37937;61.490;23.506;2022-12-29T00:09:13;-3.00;99.90
3478;DHT22;37937;61.490;23.506;2022-12-29T00:11:39;-3.00;99.90
3478;DHT22;37937;61.490;23.506;2022-12-29T00:14:05;-3.00;99.90
3478;DHT22;37937;61.490;23.506;2022-12-29T00:16:49;-3.00;99.90
3478;DHT22;37937;61.490;23.506;2022-12-29T00:19:14;-3.10;99.90
3478;DHT22;37937;61.490;23.506;2022-12-29T00:21:59;-3.20;99.90
3478;DHT22;37937;61.490;23.506;2022-12-29T00:24:44;-3.10;99.90
3478;DHT22;37937;61.490;23.506;2022-12-29T00:27:19;-3.10;99.90
3478;DHT22;37937;61.490;23.506;2022-12-29T00:30:07;-3.10;99.90
3478;DHT22;37937;61.490;23.506;2022-12-29T00:32:52;-3.10;99.90
3478;DHT22;37937;61.490;23.506;2022-12-29T00:35:43;-3.20;99.90
3478;DHT22;37937;61.490;23.506;2022-12-29T00:38:09;-3.20;99.90
3478;DHT22;37937;61.490;23.506;2022-12-29T00:40:54;-3.20;99.90
3478;DHT22;37937;61.490;23.506;2022-12-29T00:43:38;-3.20;99.90
3478;DHT22;37937;61.490;23.506;2022-12-29T00:46:23;-3.40;99.90
3478;DHT22;37937;61.490;23.506;2022-12-29T00:48:48;-3.40;99.90
3478;DHT22;37937;61.490;23.506;2022-12-29T00:51:32;-3.40;99.90
3478;DHT22;37937;61.490;23.506;2022-12-29T00:53:58;-3.40;99.90
3478;DHT22;37937;61.490;23.506;2022-12-29T00:56:24;-3.30;99.90
3478;DHT22;37937;61.490;23.506;2022-12-29T00:58:50;-3.30;99.90
3478;DHT22;37937;61.490;23.506;2022-12-29T01:01:15;-3.40;99.90
3478;DHT22;37937;61.490;23.506;2022-12-29T01:03:41;-3.40;99.90
3478;DHT22;37937;61.490;23.506;2022-12-29T01:06:07;-3.40;99.90
3478;DHT22;37937;61.490;23.506;2022-12-29T01:08:34;-3.40;99.90
3478;DHT22;37937;61.490;23.506;2022-12-29T01:11:00;-3.40;99.90
3478;DHT22;37937;61.490;23.506;2022-12-29T01:13:26;-3.40;99.90
3478;DHT22;37937;61.490;23.506;2022-12-29T01:15:52;-3.40;99.90
3478;DHT22;37937;61.490;23.506;2022-12-29T01:18:18;-3.40;99.90
3478;DHT22;37937;61.490;23.506;2022-12-29T01:20:43;-3.40;99.90
3478;DHT22;37937;61.490;23.506;2022-12-29T01:23:09;-3.50;99.90
3478;DHT22;37937;61.490;23.506;2022-12-29T01:25:35;-3.50;99.90
3478;DHT22;37937;61.490;23.506;2022-12-29T01:28:00;-3.40;99.90
3478;DHT22;37937;61.490;23.506;2022-12-29T01:30:26;-3.50;99.90
3478;DHT22;37937;61.490;23.506;2022-12-29T01:32:52;-3.40;99.90
3478;DHT22;37937;61.490;23.506;2022-12-29T01:35:18;-3.40;99.90
3478;DHT22;37937;61.490;23.506;2022-12-29T01:37:43;-3.40;99.90
3478;DHT22;37937;61.490;23.506;2022-12-29T01:40:09;-3.40;99.90
3478;DHT22;37937;61.490;23.506;2022-12-29T01:42:35;-3.50;99.90
3478;DHT22;37937;61.490;23.506;2022-12-29T01:45:08;-3.50;99.90
3478;DHT22;37937;61.490;23.506;2022-12-29T01:47:37;-3.50;99.90
3478;DHT22;37937;61.490;23.506;2022-12-29T01:50:09;-3.60;99.90
3478;DHT22;37937;61.490;23.506;2022-12-29T01:52:35;-3.50;99.90
3478;DHT22;37937;61.490;23.506;2022-12-29T01:55:03;-3.60;99.90
3478;DHT22;37937;61.490;23.506;2022-12-29T01:57:31;-3.60;99.90
3478;DHT22;37937;61.490;23.506;2022-12-29T02:00:06;-3.60;99.90
3478;DHT22;37937;61.490;23.506;2022-12-29T02:02:33;-3.60;99.90
3478;DHT22;37937;61.490;23.506;2022-12-29T02:04:59;-3.60;99.90
3478;DHT22;37937;61.490;23.506;2022-12-29T02:07:28;-3.60;99.90
3478;DHT22;37937;61.490;23.506;2022-12-29T02:09:54;-3.60;99.90
3478;DHT22;37937;61.490;23.506;2022-12-29T02:12:20;-3.70;99.90
3478;DHT22;37937;61.490;23.506;2022-12-29T02:14:47;-3.70;99.90
3478;DHT22;37937;61.490;23.506;2022-12-29T02:20:10;-3.70;99.90
3478;DHT22;37937;61.490;23.506;2022-12-29T02:25:20;-3.70;99.90
3478;DHT22;37937;61.490;23.506;2022-12-29T02:35:59;-3.70;99.90
3478;DHT22;37937;61.490;23.506;2022-12-29T02:38:42;-3.70;99.90
3478;DHT22;37937;61.490;23.506;2022-12-29T02:49:01;-3.60;99.90
3478;DHT22;37937;61.490;23.506;2022-12-29T02:51:32;-3.60;99.90
3478;DHT22;37937;61.490;23.506;2022-12-29T02:53:59;-3.60;99.90
3478;DHT22;37937;61.490;23.506;2022-12-29T02:56:44;-3.60;99.90
3478;DHT22;37937;61.490;23.506;2022-12-29T02:59:09;-3.60;99.90
3478;DHT22;37937;61.490;23.506;2022-12-29T03:06:47;-3.60;99.90
3478;DHT22;37937;61.490;23.506;2022-12-29T03:09:20;-3.60;99.90
3478;DHT22;37937;61.490;23.506;2022-12-29T03:11:57;-3.50;99.90
3478;DHT22;37937;61.490;23.506;2022-12-29T03:15:01;-3.60;99.90
3478;DHT22;37937;61.490;23.506;2022-12-29T03:20:16;-3.60;99.90
3478;DHT22;37937;61.490;23.506;2022-12-29T03:22:44;-3.50;99.90
3478;DHT22;37937;61.490;23.506;2022-12-29T03:25:14;-3.50;99.90
3478;DHT22;37937;61.490;23.506;2022-12-29T03:27:42;-3.40;99.90
3478;DHT22;37937;61.490;23.506;2022-12-29T03:30:09;-3.40;99.90
3478;DHT22;37937;61.490;23.506;2022-12-29T03:33:18;-3.40;99.90
3478;DHT22;37937;61.490;23.506;2022-12-29T03:35:25;-3.40;99.90
3478;DHT22;37937;61.490;23.506;2022-12-29T03:40:29;-3.30;99.90
3478;DHT22;37937;61.490;23.506;2022-12-29T03:42:55;-3.30;99.90
3478;DHT22;37937;61.490;23.506;2022-12-29T03:45:22;-3.30;99.90
3478;DHT22;37937;61.490;23.506;2022-12-29T03:47:48;-3.30;99.90
3478;DHT22;37937;61.490;23.506;2022-12-29T03:50:14;-3.30;99.90
3478;DHT22;37937;61.490;23.506;2022-12-29T03:52:39;-3.30;99.90
3478;DHT22;37937;61.490;23.506;2022-12-29T03:55:05;-3.30;99.90
3478;DHT22;37937;61.490;23.506;2022-12-29T03:57:32;-3.20;99.90
3478;DHT22;37937;61.490;23.506;2022-12-29T03:59:58;-3.30;99.90
3478;DHT22;37937;61.490;23.506;2022-12-29T04:02:25;-3.20;99.90
3478;DHT22;37937;61.490;23.506;2022-12-29T04:04:50;-3.30;99.90
3478;DHT22;37937;61.490;23.506;2022-12-29T04:07:16;-3.20;99.90
3478;DHT22;37937;61.490;23.506;2022-12-29T04:09:42;-3.20;99.90
3478;DHT22;37937;61.490;23.506;2022-12-29T04:12:08;-3.20;99.90
3478;DHT22;37937;61.490;23.506;2022-12-29T04:14:33;-3.10;99.90
3478;DHT22;37937;61.490;23.506;2022-12-29T04:16:59;-3.10;99.90
3478;DHT22;37937;61.490;23.506;2022-12-29T04:19:25;-3.10;99.90
3478;DHT22;37937;61.490;23.506;2022-12-29T04:21:51;-3.00;99.90
3478;DHT22;37937;61.490;23.506;2022-12-29T04:24:16;-3.10;99.90
3478;DHT22;37937;61.490;23.506;2022-12-29T04:26:43;-3.10;99.90
3478;DHT22;37937;61.490;23.506;2022-12-29T04:29:08;-3.00;99.90
3478;DHT22;37937;61.490;23.506;2022-12-29T04:31:34;-3.00;99.90
3478;DHT22;37937;61.490;23.506;2022-12-29T04:34:00;-3.00;99.90
3478;DHT22;37937;61.490;23.506;2022-12-29T04:36:26;-3.00;99.90
3478;DHT22;37937;61.490;23.506;2022-12-29T04:38:52;-3.00;99.90
3478;DHT22;37937;61.490;23.506;2022-12-29T04:41:18;-3.00;99.90
3478;DHT22;37937;61.490;23.506;2022-12-29T04:43:44;-3.00;99.90
3478;DHT22;37937;61.490;23.506;2022-12-29T04:46:10;-3.00;99.90
3478;DHT22;37937;61.490;23.506;2022-12-29T04:48:35;-2.90;99.90
3478;DHT22;37937;61.490;23.506;2022-12-29T04:51:01;-3.00;99.90
3478;DHT22;37937;61.490;23.506;2022-12-29T04:53:27;-3.00;99.90
3478;DHT22;37937;61.490;23.506;2022-12-29T04:55:53;-2.90;99.90
3478;DHT22;37937;61.490;23.506;2022-12-29T04:58:19;-2.90;99.90
3478;DHT22;37937;61.490;23.506;2022-12-29T05:00:45;-2.90;99.90
3478;DHT22;37937;61.490;23.506;2022-12-29T05:03:10;-2.90;99.90
3478;DHT22;37937;61.490;23.506;2022-12-29T05:05:36;-2.90;99.90
3478;DHT22;37937;61.490;23.506;2022-12-29T05:08:02;-2.90;99.90
3478;DHT22;37937;61.490;23.506;2022-12-29T05:10:28;-2.90;99.90
3478;DHT22;37937;61.490;23.506;2022-12-29T05:12:53;-2.90;99.90
3478;DHT22;37937;61.490;23.506;2022-12-29T05:15:19;-2.90;99.90
3478;DHT22;37937;61.490;23.506;2022-12-29T05:17:44;-2.90;99.90
3478;DHT22;37937;61.490;23.506;2022-12-29T05:20:10;-2.90;99.90
3478;DHT22;37937;61.490;23.506;2022-12-29T05:22:36;-2.90;99.90
3478;DHT22;37937;61.490;23.506;2022-12-29T05:25:02;-2.90;99.90
3478;DHT22;37937;61.490;23.506;2022-12-29T05:27:27;-2.80;99.90
3478;DHT22;37937;61.490;23.506;2022-12-29T05:29:53;-2.80;99.90
3478;DHT22;37937;61.490;23.506;2022-12-29T05:32:19;-2.80;99.90
3478;DHT22;37937;61.490;23.506;2022-12-29T05:34:44;-2.80;99.90
3478;DHT22;37937;61.490;23.506;2022-12-29T05:37:10;-2.80;99.90
3478;DHT22;37937;61.490;23.506;2022-12-29T05:39:36;-2.80;99.90
3478;DHT22;37937;61.490;23.506;2022-12-29T05:42:01;-2.70;99.90
3478;DHT22;37937;61.490;23.506;2022-12-29T05:44:27;-2.80;99.90
3478;DHT22;37937;61.490;23.506;2022-12-29T05:46:53;-2.80;99.90
3478;DHT22;37937;61.490;23.506;2022-12-29T05:49:18;-2.80;99.90
3478;DHT22;37937;61.490;23.506;2022-12-29T05:51:44;-2.80;99.90
3478;DHT22;37937;61.490;23.506;2022-12-29T05:54:11;-2.70;99.90
3478;DHT22;37937;61.490;23.506;2022-12-29T05:56:37;-2.80;99.90
3478;DHT22;37937;61.490;23.506;2022-12-29T05:59:03;-2.70;99.90
3478;DHT22;37937;61.490;23.506;2022-12-29T06:01:29;-2.70;99.90
3478;DHT22;37937;61.490;23.506;2022-12-29T06:03:54;-2.70;99.90
3478;DHT22;37937;61.490;23.506;2022-12-29T06:06:20;-2.70;99.90
3478;DHT22;37937;61.490;23.506;2022-12-29T06:08:45;-2.70;99.90
3478;DHT22;37937;61.490;23.506;2022-12-29T06:11:11;-2.70;99.90
3478;DHT22;37937;61.490;23.506;2022-12-29T06:13:37;-2.70;99.90
3478;DHT22;37937;61.490;23.506;2022-12-29T06:16:03;-2.70;99.90
3478;DHT22;37937;61.490;23.506;2022-12-29T06:18:28;-2.70;99.90
3478;DHT22;37937;61.490;23.506;2022-12-29T06:20:58;-2.60;99.90
3478;DHT22;37937;61.490;23.506;2022-12-29T06:23:24;-2.60;99.90
3478;DHT22;37937;61.490;23.506;2022-12-29T06:25:49;-2.60;99.90
3478;DHT22;37937;61.490;23.506;2022-12-29T06:28:15;-2.60;99.90
3478;DHT22;37937;61.490;23.506;2022-12-29T06:30:45;-2.60;99.90
3478;DHT22;37937;61.490;23.506;2022-12-29T06:33:11;-2.60;99.90
3478;DHT22;37937;61.490;23.506;2022-12-29T06:35:37;-2.60;99.90
3478;DHT22;37937;61.490;23.506;2022-12-29T06:38:03;-2.60;99.90
3478;DHT22;37937;61.490;23.506;2022-12-29T06:40:29;-2.60;99.90
3478;DHT22;37937;61.490;23.506;2022-12-29T06:42:55;-2.60;99.90
3478;DHT22;37937;61.490;23.506;2022-12-29T06:45:20;-2.60;99.90
3478;DHT22;37937;61.490;23.506;2022-12-29T06:47:46;-2.60;99.90
3478;DHT22;37937;61.490;23.506;2022-12-29T06:50:12;-2.60;99.90
3478;DHT22;37937;61.490;23.506;2022-12-29T06:52:37;-2.50;99.90
3478;DHT22;37937;61.490;23.506;2022-12-29T06:55:03;-2.50;99.90
3478;DHT22;37937;61.490;23.506;2022-12-29T06:57:29;-2.50;99.90
3478;DHT22;37937;61.490;23.506;2022-12-29T06:59:54;-2.50;99.90
3478;DHT22;37937;61.490;23.506;2022-12-29T07:02:23;-2.50;99.90
3478;DHT22;37937;61.490;23.506;2022-12-29T07:04:53;-2.50;99.90
3478;DHT22;37937;61.490;23.506;2022-12-29T07:07:19;-2.40;99.90
3478;DHT22;37937;61.490;23.506;2022-12-29T07:09:45;-2.40;99.90
3478;DHT22;37937;61.490;23.506;2022-12-29T07:12:11;-2.40;99.90
3478;DHT22;37937;61.490;23.506;2022-12-29T07:14:36;-2.40;99.90
3478;DHT22;37937;61.490;23.506;2022-12-29T07:17:02;-2.40;99.90
3478;DHT22;37937;61.490;23.506;2022-12-29T07:19:30;-2.30;99.90
3478;DHT22;37937;61.490;23.506;2022-12-29T07:21:56;-2.30;99.90
3478;DHT22;37937;61.490;23.506;2022-12-29T07:24:22;-2.30;99.90
3478;DHT22;37937;61.490;23.506;2022-12-29T07:26:47;-2.30;99.90
3478;DHT22;37937;61.490;23.506;2022-12-29T07:29:13;-2.30;99.90
3478;DHT22;37937;61.490;23.506;2022-12-29T07:31:39;-2.30;99.90
3478;DHT22;37937;61.490;23.506;2022-12-29T07:34:04;-2.30;99.90
3478;DHT22;37937;61.490;23.506;2022-12-29T07:36:30;-2.20;99.90
3478;DHT22;37937;61.490;23.506;2022-12-29T07:38:56;-2.20;99.90
3478;DHT22;37937;61.490;23.506;2022-12-29T07:41:21;-2.20;99.90
3478;DHT22;37937;61.490;23.506;2022-12-29T07:43:47;-2.20;99.90
3478;DHT22;37937;61.490;23.506;2022-12-29T07:46:14;-2.20;99.90
3478;DHT22;37937;61.490;23.506;2022-12-29T07:48:39;-2.10;99.90
3478;DHT22;37937;61.490;23.506;2022-12-29T07:51:05;-2.10;99.90
3478;DHT22;37937;61.490;23.506;2022-12-29T07:53:31;-2.10;99.90
3478;DHT22;37937;61.490;23.506;2022-12-29T07:55:57;-2.00;99.90
3478;DHT22;37937;61.490;23.506;2022-12-29T07:58:23;-2.00;99.90
3478;DHT22;37937;61.490;23.506;2022-12-29T08:00:52;-2.00;99.90
3478;DHT22;37937;61.490;23.506;2022-12-29T08:03:18;-2.00;99.90
3478;DHT22;37937;61.490;23.506;2022-12-29T08:05:44;-2.00;99.90
3478;DHT22;37937;61.490;23.506;2022-12-29T08:08:09;-2.00;99.90
3478;DHT22;37937;61.490;23.506;2022-12-29T08:10:35;-2.00;99.90
3478;DHT22;37937;61.490;23.506;2022-12-29T08:13:01;-1.90;99.90
3478;DHT22;37937;61.490;23.506;2022-12-29T08:15:26;-1.90;99.90
3478;DHT22;37937;61.490;23.506;2022-12-29T08:17:52;-1.90;99.90
3478;DHT22;37937;61.490;23.506;2022-12-29T08:20:18;-1.90;99.90
3478;DHT22;37937;61.490;23.506;2022-12-29T08:22:43;-1.90;99.90
3478;DHT22;37937;61.490;23.506;2022-12-29T08:25:09;-1.90;99.90
3478;DHT22;37937;61.490;23.506;2022-12-29T08:27:35;-1.90;99.90
3478;DHT22;37937;61.490;23.506;2022-12-29T08:30:00;-1.80;99.90
3478;DHT22;37937;61.490;23.506;2022-12-29T08:32:27;-1.80;99.90
3478;DHT22;37937;61.490;23.506;2022-12-29T08:34:53;-1.80;99.90
3478;DHT22;37937;61.490;23.506;2022-12-29T08:37:19;-1.80;99.90
3478;DHT22;37937;61.490;23.506;2022-12-29T08:39:45;-1.80;99.90
3478;DHT22;37937;61.490;23.506;2022-12-29T08:42:10;-1.70;99.90
3478;DHT22;37937;61.490;23.506;2022-12-29T08:44:36;-1.70;99.90
3478;DHT22;37937;61.490;23.506;2022-12-29T08:47:02;-1.70;99.90
3478;DHT22;37937;61.490;23.506;2022-12-29T08:49:27;-1.70;99.90
3478;DHT22;37937;61.490;23.506;2022-12-29T08:51:53;-1.70;99.90
3478;DHT22;37937;61.490;23.506;2022-12-29T08:54:19;-1.60;99.90
3478;DHT22;37937;61.490;23.506;2022-12-29T08:56:44;-1.60;99.90
3478;DHT22;37937;61.490;23.506;2022-12-29T08:59:10;-1.60;99.90
3478;DHT22;37937;61.490;23.506;2022-12-29T09:01:35;-1.60;99.90
3478;DHT22;37937;61.490;23.506;2022-12-29T09:04:01;-1.60;99.90
3478;DHT22;37937;61.490;23.506;2022-12-29T09:06:27;-1.60;99.90
3478;DHT22;37937;61.490;23.506;2022-12-29T09:08:56;-1.50;99.90
3478;DHT22;37937;61.490;23.506;2022-12-29T09:11:22;-1.50;99.90
3478;DHT22;37937;61.490;23.506;2022-12-29T09:13:48;-1.50;99.90
3478;DHT22;37937;61.490;23.506;2022-12-29T09:16:14;-1.50;99.90
3478;DHT22;37937;61.490;23.506;2022-12-29T09:18:41;-1.40;99.90
3478;DHT22;37937;61.490;23.506;2022-12-29T09:21:07;-1.40;99.90
3478;DHT22;37937;61.490;23.506;2022-12-29T09:23:33;-1.40;99.90
3478;DHT22;37937;61.490;23.506;2022-12-29T09:25:58;-1.40;99.90
3478;DHT22;37937;61.490;23.506;2022-12-29T09:28:26;-1.40;99.90
3478;DHT22;37937;61.490;23.506;2022-12-29T09:30:51;-1.40;99.90
3478;DHT22;37937;61.490;23.506;2022-12-29T09:33:17;-1.40;99.90
3478;DHT22;37937;61.490;23.506;2022-12-29T09:35:43;-1.30;99.90
3478;DHT22;37937;61.490;23.506;2022-12-29T09:38:09;-1.40;99.90
3478;DHT22;37937;61.490;23.506;2022-12-29T09:40:35;-1.40;99.90
3478;DHT22;37937;61.490;23.506;2022-12-29T09:45:35;-1.30;99.90
3478;DHT22;37937;61.490;23.506;2022-12-29T09:48:03;-1.30;99.90
3478;DHT22;37937;61.490;23.506;2022-12-29T09:50:32;-1.30;99.90
3478;DHT22;37937;61.490;23.506;2022-12-29T09:55:46;-1.30;99.90
3478;DHT22;37937;61.490;23.506;2022-12-29T10:00:56;-1.20;99.90
3478;DHT22;37937;61.490;23.506;2022-12-29T10:03:27;-1.30;99.90
3478;DHT22;37937;61.490;23.506;2022-12-29T10:06:09;-1.20;99.90
3478;DHT22;37937;61.490;23.506;2022-12-29T10:14:00;-1.20;99.90
3478;DHT22;37937;61.490;23.506;2022-12-29T10:21:40;-1.20;99.90
3478;DHT22;37937;61.490;23.506;2022-12-29T10:24:10;-1.10;99.90
3478;DHT22;37937;61.490;23.506;2022-12-29T10:26:39;-1.10;99.90
3478;DHT22;37937;61.490;23.506;2022-12-29T10:29:06;-1.10;99.90
3478;DHT22;37937;61.490;23.506;2022-12-29T10:31:33;-1.10;99.90
3478;DHT22;37937;61.490;23.506;2022-12-29T10:34:01;-1.10;99.90
3478;DHT22;37937;61.490;23.506;2022-12-29T10:36:31;-1.10;99.90
3478;DHT22;37937;61.490;23.506;2022-12-29T10:41:32;-1.10;99.90
3478;DHT22;37937;61.490;23.506;2022-12-29T10:43:59;-1.00;99.90
3478;DHT22;37937;61.490;23.506;2022-12-29T10:46:28;-1.00;99.90
3478;DHT22;37937;61.490;23.506;2022-12-29T10:48:54;-1.00;99.90
3478;DHT22;37937;61.490;23.506;2022-12-29T10:51:24;-1.10;99.90
3478;DHT22;37937;61.490;23.506;2022-12-29T10:56:29;-1.00;99.90
3478;DHT22;37937;61.490;23.506;2022-12-29T10:58:57;-1.00;99.90
3478;DHT22;37937;61.490;23.506;2022-12-29T11:01:31;-1.00;99.90
3478;DHT22;37937;61.490;23.506;2022-12-29T11:06:35;-1.00;99.90
3478;DHT22;37937;61.490;23.506;2022-12-29T11:09:10;-0.90;99.90
3478;DHT22;37937;61.490;23.506;2022-12-29T11:11:37;-1.00;99.90
3478;DHT22;37937;61.490;23.506;2022-12-29T11:16:39;-1.00;99.90
3478;DHT22;37937;61.490;23.506;2022-12-29T11:19:14;-0.90;99.90
3478;DHT22;37937;61.490;23.506;2022-12-29T11:21:44;-0.90;99.90
3478;DHT22;37937;61.490;23.506;2022-12-29T11:24:31;-0.90;99.90
3478;DHT22;37937;61.490;23.506;2022-12-29T11:27:10;-0.90;99.90
3478;DHT22;37937;61.490;23.506;2022-12-29T11:29:37;-0.90;99.90
3478;DHT22;37937;61.490;23.506;2022-12-29T11:32:11;-0.80;99.90
3478;DHT22;37937;61.490;23.506;2022-12-29T11:34:36;-0.90;99.90
3478;DHT22;37937;61.490;23.506;2022-12-29T11:37:12;-0.80;99.90
3478;DHT22;37937;61.490;23.506;2022-12-29T11:39:48;-0.80;99.90
3478;DHT22;37937;61.490;23.506;2022-12-29T11:42:16;-0.80;99.90
3478;DHT22;37937;61.490;23.506;2022-12-29T11:44:44;-0.80;99.90
3478;DHT22;37937;61.490;23.506;2022-12-29T11:47:12;-0.80;99.90
3478;DHT22;37937;61.490;23.506;2022-12-29T11:49:38;-0.80;99.90
3478;DHT22;37937;61.490;23.506;2022-12-29T11:52:04;-0.80;99.90
3478;DHT22;37937;61.490;23.506;2022-12-29T11:54:33;-0.80;99.90
3478;DHT22;37937;61.490;23.506;2022-12-29T11:57:08;-0.70;99.90
3478;DHT22;37937;61.490;23.506;2022-12-29T12:03:02;-0.80;99.90
3478;DHT22;37937;61.490;23.506;2022-12-29T12:05:08;-0.70;99.90
3478;DHT22;37937;61.490;23.506;2022-12-29T12:07:45;-0.70;99.90
3478;DHT22;37937;61.490;23.506;2022-12-29T12:10:16;-0.70;99.90
3478;DHT22;37937;61.490;23.506;2022-12-29T12:12:48;-0.70;99.90
3478;DHT22;37937;61.490;23.506;2022-12-29T12:15:20;-0.70;99.90
3478;DHT22;37937;61.490;23.506;2022-12-29T12:23:19;-0.70;99.90
3478;DHT22;37937;61.490;23.506;2022-12-29T12:25:51;-0.70;99.90
3478;DHT22;37937;61.490;23.506;2022-12-29T12:28:39;-0.70;99.90
3478;DHT22;37937;61.490;23.506;2022-12-29T12:31:10;-0.70;99.90
3478;DHT22;37937;61.490;23.506;2022-12-29T12:33:40;-0.70;99.90
3478;DHT22;37937;61.490;23.506;2022-12-29T12:36:20;-0.70;99.90
3478;DHT22;37937;61.490;23.506;2022-12-29T12:41:16;-0.70;99.90
3478;DHT22;37937;61.490;23.506;2022-12-29T12:43:50;-0.70;99.90
3478;DHT22;37937;61.490;23.506;2022-12-29T12:53:53;-0.70;99.90
3478;DHT22;37937;61.490;23.506;2022-12-29T12:56:39;-0.70;99.90
3478;DHT22;37937;61.490;23.506;2022-12-29T12:59:09;-0.70;99.90
3478;DHT22;37937;61.490;23.506;2022-12-29T13:06:48;-0.70;99.90
3478;DHT22;37937;61.490;23.506;2022-12-29T13:12:06;-0.80;99.90
3478;DHT22;37937;61.490;23.506;2022-12-29T13:14:40;-0.70;99.90
3478;DHT22;37937;61.490;23.506;2022-12-29T13:17:17;-0.70;99.90
3478;DHT22;37937;61.490;23.506;2022-12-29T13:19:50;-0.70;99.90
3478;DHT22;37937;61.490;23.506;2022-12-29T13:22:34;-0.70;99.90
3478;DHT22;37937;61.490;23.506;2022-12-29T13:29:59;-0.70;99.90
3478;DHT22;37937;61.490;23.506;2022-12-29T13:37:52;-0.70;99.90
3478;DHT22;37937;61.490;23.506;2022-12-29T13:40:21;-0.70;99.90
3478;DHT22;37937;61.490;23.506;2022-12-29T13:42:48;-0.70;99.90
3478;DHT22;37937;61.490;23.506;2022-12-29T13:45:18;-0.70;99.90
3478;DHT22;37937;61.490;23.506;2022-12-29T13:48:28;-0.70;99.90
3478;DHT22;37937;61.490;23.506;2022-12-29T13:50:35;-0.70;99.90
3478;DHT22;37937;61.490;23.506;2022-12-29T13:53:04;-0.70;99.90
3478;DHT22;37937;61.490;23.506;2022-12-29T13:55:40;-0.70;99.90
3478;DHT22;37937;61.490;23.506;2022-12-29T14:00:57;-0.60;99.90
3478;DHT22;37937;61.490;23.506;2022-12-29T14:03:28;-0.70;99.90
3478;DHT22;37937;61.490;23.506;2022-12-29T14:06:05;-0.70;99.90
3478;DHT22;37937;61.490;23.506;2022-12-29T14:08:35;-0.70;99.90
3478;DHT22;37937;61.490;23.506;2022-12-29T14:11:05;-0.60;99.90
3478;DHT22;37937;61.490;23.506;2022-12-29T14:13:32;-0.60;99.90
3478;DHT22;37937;61.490;23.506;2022-12-29T14:16:03;-0.60;99.90
3478;DHT22;37937;61.490;23.506;2022-12-29T14:18:31;-0.60;99.90
3478;DHT22;37937;61.490;23.506;2022-12-29T14:20:58;-0.60;99.90
3478;DHT22;37937;61.490;23.506;2022-12-29T14:23:46;-0.60;99.90
3478;DHT22;37937;61.490;23.506;2022-12-29T14:26:14;-0.60;99.90
3478;DHT22;37937;61.490;23.506;2022-12-29T14:28:47;-0.60;99.90
3478;DHT22;37937;61.490;23.506;2022-12-29T14:33:39;-0.60;99.90
3478;DHT22;37937;61.490;23.506;2022-12-29T14:36:27;-0.60;99.90
3478;DHT22;37937;61.490;23.506;2022-12-29T14:38:58;-0.60;99.90
3478;DHT22;37937;61.490;23.506;2022-12-29T14:41:26;-0.50;99.90
3478;DHT22;37937;61.490;23.506;2022-12-29T14:44:08;-0.60;99.90
3478;DHT22;37937;61.490;23.506;2022-12-29T14:49:15;-0.50;99.90
3478;DHT22;37937;61.490;23.506;2022-12-29T14:51:42;-0.50;99.90
3478;DHT22;37937;61.490;23.506;2022-12-29T14:56:52;-0.50;99.90
3478;DHT22;37937;61.490;23.506;2022-12-29T14:59:22;-0.50;99.90
3478;DHT22;37937;61.490;23.506;2022-12-29T15:01:50;-0.50;99.90
3478;DHT22;37937;61.490;23.506;2022-12-29T15:04:20;-0.50;99.90
3478;DHT22;37937;61.490;23.506;2022-12-29T15:06:46;-0.50;99.90
3478;DHT22;37937;61.490;23.506;2022-12-29T15:09:34;-0.50;99.90
3478;DHT22;37937;61.490;23.506;2022-12-29T15:12:19;-0.50;99.90
3478;DHT22;37937;61.490;23.506;2022-12-29T15:14:52;-0.50;99.90
3478;DHT22;37937;61.490;23.506;2022-12-29T15:17:31;-0.40;99.90
3478;DHT22;37937;61.490;23.506;2022-12-29T15:19:58;-0.40;99.90
3478;DHT22;37937;61.490;23.506;2022-12-29T15:22:24;-0.40;99.90
3478;DHT22;37937;61.490;23.506;2022-12-29T15:24:51;-0.40;99.90
3478;DHT22;37937;61.490;23.506;2022-12-29T15:27:24;-0.40;99.90
3478;DHT22;37937;61.490;23.506;2022-12-29T15:29:57;-0.40;99.90
3478;DHT22;37937;61.490;23.506;2022-12-29T15:32:27;-0.30;99.90
3478;DHT22;37937;61.490;23.506;2022-12-29T15:34:54;-0.40;99.90
3478;DHT22;37937;61.490;23.506;2022-12-29T15:37:22;-0.30;99.90
3478;DHT22;37937;61.490;23.506;2022-12-29T15:39:48;-0.30;99.90
3478;DHT22;37937;61.490;23.506;2022-12-29T15:44:40;-0.20;99.90
3478;DHT22;37937;61.490;23.506;2022-12-29T15:47:20;-0.20;99.90
3478;DHT22;37937;61.490;23.506;2022-12-29T15:49:53;-0.30;99.90
3478;DHT22;37937;61.490;23.506;2022-12-29T15:52:20;-0.20;99.90
3478;DHT22;37937;61.490;23.506;2022-12-29T15:54:46;-0.20;99.90
3478;DHT22;37937;61.490;23.506;2022-12-29T15:57:26;-0.20;99.90
3478;DHT22;37937;61.490;23.506;2022-12-29T15:59:52;-0.20;99.90
3478;DHT22;37937;61.490;23.506;2022-12-29T16:02:20;-0.10;99.90
3478;DHT22;37937;61.490;23.506;2022-12-29T16:04:47;-0.10;99.90
3478;DHT22;37937;61.490;23.506;2022-12-29T16:09:58;-0.10;99.90
3478;DHT22;37937;61.490;23.506;2022-12-29T16:12:34;-0.10;99.90
3478;DHT22;37937;61.490;23.506;2022-12-29T16:15:01;-0.10;99.90
3478;DHT22;37937;61.490;23.506;2022-12-29T16:17:28;-0.10;99.90
3478;DHT22;37937;61.490;23.506;2022-12-29T16:19:56;-0.10;99.90
3478;DHT22;37937;61.490;23.506;2022-12-29T16:24:51;-0.10;99.90
3478;DHT22;37937;61.490;23.506;2022-12-29T16:27:25;-0.10;99.90
3478;DHT22;37937;61.490;23.506;2022-12-29T16:29:53;-0.10;99.90
3478;DHT22;37937;61.490;23.506;2022-12-29T16:32:27;-0.10;99.90
3478;DHT22;37937;61.490;23.506;2022-12-29T16:35:10;-0.10;99.90
3478;DHT22;37937;61.490;23.506;2022-12-29T16:37:36;-0.10;99.90
3478;DHT22;37937;61.490;23.506;2022-12-29T16:42:45;-0.10;99.90
3478;DHT22;37937;61.490;23.506;2022-12-29T16:47:43;-0.10;99.90
3478;DHT22;37937;61.490;23.506;2022-12-29T16:50:16;-0.10;99.90
3478;DHT22;37937;61.490;23.506;2022-12-29T16:52:47;-0.10;99.90
3478;DHT22;37937;61.490;23.506;2022-12-29T16:55:17;-0.10;99.90
3478;DHT22;37937;61.490;23.506;2022-12-29T16:57:44;0.00;99.90
3478;DHT22;37937;61.490;23.506;2022-12-29T17:00:17;0.00;99.90
3478;DHT22;37937;61.490;23.506;2022-12-29T17:02:44;0.00;99.90
3478;DHT22;37937;61.490;23.506;2022-12-29T17:05:13;0.00;99.90
3478;DHT22;37937;61.490;23.506;2022-12-29T17:07:39;0.00;99.90
3478;DHT22;37937;61.490;23.506;2022-12-29T17:10:05;0.00;99.90
3478;DHT22;37937;61.490;23.506;2022-12-29T17:12:31;0.00;99.90
3478;DHT22;37937;61.490;23.506;2022-12-29T17:15:03;0.00;99.90
3478;DHT22;37937;61.490;23.506;2022-12-29T17:17:37;0.00;99.90
3478;DHT22;37937;61.490;23.506;2022-12-29T17:20:20;0.00;99.90
3478;DHT22;37937;61.490;23.506;2022-12-29T17:22:46;0.00;99.90
3478;DHT22;37937;61.490;23.506;2022-12-29T17:25:13;0.00;99.90
3478;DHT22;37937;61.490;23.506;2022-12-29T17:30:12;0.00;99.90
3478;DHT22;37937;61.490;23.506;2022-12-29T17:32:39;0.00;99.90
3478;DHT22;37937;61.490;23.506;2022-12-29T17:35:16;0.10;99.90
3478;DHT22;37937;61.490;23.506;2022-12-29T17:37:42;0.00;99.90
3478;DHT22;37937;61.490;23.506;2022-12-29T17:40:11;0.10;99.90
3478;DHT22;37937;61.490;23.506;2022-12-29T17:42:39;0.10;99.90
3478;DHT22;37937;61.490;23.506;2022-12-29T17:45:11;0.10;99.90
3478;DHT22;37937;61.490;23.506;2022-12-29T17:47:37;0.10;99.90